Time;durP1;ratioP1;P1;durP2;ratioP2;P2;SDS_P1;SDS_P2;PMS_P1;PMS_P2;Temp;Humidity;BMP_temperature;BMP_pressure;BME280_temperature;BME280_humidity;BME280_pressure;Samples;Min_cycle;Max_cycle;Signal;HPM_P1;HPM_P2
2021/09/23 00:00:54;;;;;;;58.80;3.07;;;9.50;1.00;;;;;;5051298;28;20535;-69
2021/09/23 00:03:32;;;;;;;58.57;3.00;;;9.40;1.00;;;;;;5050733;28;20456;-69
2021/09/23 00:06:01;;;;;;;58.47;2.87;;;9.40;1.00;;;;;;5050923;28;20450;-69
2021/09/23 00:08:28;;;;;;;58.47;2.80;;;9.40;1.00;;;;;;5050646;28;20474;-69
2021/09/23 00:10:55;;;;;;;58.57;3.20;;;9.40;1.00;;;;;;5050856;28;20451;-69
2021/09/23 00:13:23;;;;;;;58.37;3.03;;;9.40;1.00;;;;;;5050788;28;20897;-69
2021/09/23 00:15:50;;;;;;;58.57;3.07;;;9.30;1.00;;;;;;5073422;27;21086;-69
2021/09/23 00:18:19;;;;;;;58.63;2.97;;;9.30;1.00;;;;;;5050971;28;20865;-69
2021/09/23 00:20:47;;;;;;;59.00;3.50;;;9.30;1.00;;;;;;5050641;28;20810;-69
2021/09/23 00:23:17;;;;;;;58.33;2.90;;;9.20;1.00;;;;;;5050634;28;20447;-69
2021/09/23 00:25:44;;;;;;;59.10;3.30;;;9.20;1.00;;;;;;5050291;28;20829;-69
2021/09/23 00:28:12;;;;;;;58.53;3.10;;;9.20;1.00;;;;;;5050327;28;21054;-69
2021/09/23 00:30:39;;;;;;;58.43;3.07;;;9.20;1.00;;;;;;5050185;28;20454;-69
2021/09/23 00:33:06;;;;;;;58.70;3.30;;;9.10;1.00;;;;;;5050409;28;20461;-69
2021/09/23 00:35:33;;;;;;;58.50;3.03;;;9.10;1.00;;;;;;5050076;28;20569;-69
2021/09/23 00:38:00;;;;;;;59.20;3.37;;;9.10;1.00;;;;;;5050232;28;21006;-69
2021/09/23 00:40:28;;;;;;;58.63;3.00;;;9.10;1.00;;;;;;5050188;28;20456;-69
2021/09/23 00:42:55;;;;;;;58.63;3.00;;;9.10;1.00;;;;;;5050034;28;20544;-69
2021/09/23 00:45:23;;;;;;;58.57;3.20;;;9.10;1.00;;;;;;5050205;28;20541;-69
2021/09/23 00:47:50;;;;;;;59.20;3.40;;;9.10;1.00;;;;;;5111343;27;20470;-69
2021/09/23 00:50:20;;;;;;;58.67;3.00;;;9.10;1.00;;;;;;5155002;27;20443;-69
2021/09/23 00:52:47;;;;;;;58.80;3.23;;;9.10;1.00;;;;;;5155410;27;20448;-69
2021/09/23 00:55:14;;;;;;;58.57;3.00;;;9.10;1.00;;;;;;5155143;27;20857;-69
2021/09/23 00:57:43;;;;;;;58.57;2.87;;;9.10;1.00;;;;;;5154394;27;20474;-69
2021/09/23 01:00:13;;;;;;;58.43;2.70;;;9.10;1.00;;;;;;5154836;27;21033;-70
2021/09/23 01:02:40;;;;;;;58.47;2.80;;;9.10;1.00;;;;;;5155219;27;20440;-69
2021/09/23 01:05:08;;;;;;;59.37;3.43;;;9.00;1.00;;;;;;5151083;27;20447;-69
2021/09/23 01:07:35;;;;;;;58.60;3.00;;;9.10;1.00;;;;;;5154431;27;20823;-69
2021/09/23 01:10:03;;;;;;;58.63;2.73;;;9.10;1.00;;;;;;5154841;27;20438;-69
2021/09/23 01:12:30;;;;;;;58.70;2.90;;;9.10;1.00;;;;;;5154818;27;20938;-69
2021/09/23 01:15:00;;;;;;;58.60;3.20;;;9.10;1.00;;;;;;5154971;27;21050;-69
2021/09/23 01:17:27;;;;;;;58.67;2.93;;;9.10;1.00;;;;;;5154367;27;20470;-69
2021/09/23 01:19:54;;;;;;;58.47;3.10;;;9.00;1.00;;;;;;5149065;27;20450;-69
2021/09/23 01:22:23;;;;;;;58.87;3.30;;;9.00;1.00;;;;;;5154607;27;20486;-69
2021/09/23 01:24:49;;;;;;;58.60;3.20;;;9.00;1.00;;;;;;5154642;27;20942;-69
2021/09/23 01:27:16;;;;;;;58.57;2.93;;;9.00;1.00;;;;;;5154580;27;20541;-69
2021/09/23 01:29:43;;;;;;;58.53;2.90;;;9.00;1.00;;;;;;5155603;27;20488;-69
2021/09/23 01:32:12;;;;;;;58.77;2.83;;;9.00;1.00;;;;;;5155690;27;20533;-69
2021/09/23 01:34:40;;;;;;;58.47;3.10;;;9.00;1.00;;;;;;5155472;27;20496;-69
2021/09/23 01:37:07;;;;;;;58.80;3.10;;;8.90;1.00;;;;;;5155412;27;20472;-69
2021/09/23 01:39:36;;;;;;;58.83;3.10;;;8.90;1.00;;;;;;5155818;27;20485;-69
2021/09/23 01:42:04;;;;;;;58.60;3.20;;;8.90;1.00;;;;;;5155239;27;20542;-69
2021/09/23 01:44:31;;;;;;;58.67;2.90;;;8.90;1.00;;;;;;5155574;27;20451;-69
2021/09/23 01:46:58;;;;;;;58.77;3.00;;;8.80;1.00;;;;;;5154653;27;20490;-69
2021/09/23 01:49:25;;;;;;;58.60;2.80;;;8.80;1.00;;;;;;5154217;27;20592;-69
2021/09/23 01:51:51;;;;;;;58.53;2.97;;;8.80;1.00;;;;;;5072805;27;20450;-69
2021/09/23 01:54:18;;;;;;;58.67;2.83;;;8.80;1.00;;;;;;5049182;28;20490;-69
2021/09/23 01:56:52;;;;;;;58.73;3.37;;;8.70;1.00;;;;;;5048718;28;20889;-69
2021/09/23 01:59:19;;;;;;;58.60;3.10;;;8.70;1.00;;;;;;5049365;27;20462;-69
2021/09/23 02:01:46;;;;;;;58.47;2.60;;;8.70;1.00;;;;;;5048260;28;20489;-69
2021/09/23 02:04:13;;;;;;;58.57;2.90;;;8.70;1.00;;;;;;5049455;28;20459;-69
2021/09/23 02:06:40;;;;;;;58.63;2.80;;;8.60;1.00;;;;;;5048735;28;20453;-69
2021/09/23 02:09:07;;;;;;;58.57;3.10;;;8.60;1.00;;;;;;5049151;28;20483;-69
2021/09/23 02:11:34;;;;;;;58.80;2.63;;;8.60;1.00;;;;;;5048691;28;20485;-69
2021/09/23 02:14:02;;;;;;;58.70;2.97;;;8.50;1.00;;;;;;5048950;28;20457;-69
2021/09/23 02:16:29;;;;;;;58.77;2.90;;;8.50;1.00;;;;;;5048363;28;20486;-69
2021/09/23 02:18:56;;;;;;;58.70;2.97;;;8.40;1.00;;;;;;5048993;28;20908;-69
2021/09/23 02:21:22;;;;;;;59.17;3.23;;;8.40;1.00;;;;;;5048530;28;20492;-69
2021/09/23 02:23:50;;;;;;;58.73;3.00;;;8.40;1.00;;;;;;5049115;27;20538;-69
2021/09/23 02:26:17;;;;;;;58.90;3.20;;;8.40;1.00;;;;;;5048555;28;20454;-69
2021/09/23 02:28:44;;;;;;;58.63;3.17;;;8.30;1.00;;;;;;5048552;28;20558;-69
2021/09/23 02:31:12;;;;;;;58.70;3.10;;;8.30;1.00;;;;;;5048491;28;20554;-69
2021/09/23 02:33:39;;;;;;;58.77;2.97;;;8.30;1.00;;;;;;5048779;28;20529;-69
2021/09/23 02:36:07;;;;;;;58.67;3.20;;;8.20;1.00;;;;;;5048339;28;20495;-69
2021/09/23 02:38:34;;;;;;;58.67;3.30;;;8.20;1.00;;;;;;5048573;28;20481;-69
2021/09/23 02:41:01;;;;;;;58.67;3.10;;;8.10;1.00;;;;;;5048459;28;20448;-69
2021/09/23 02:43:27;;;;;;;58.70;3.00;;;8.10;1.00;;;;;;5048345;28;20457;-69
2021/09/23 02:45:54;;;;;;;59.03;3.53;;;8.10;1.00;;;;;;5048223;28;20960;-69
2021/09/23 02:48:22;;;;;;;58.80;2.80;;;8.10;1.00;;;;;;5048542;28;20909;-69
2021/09/23 02:50:49;;;;;;;58.77;3.03;;;8.10;1.00;;;;;;5048782;28;20816;-69
2021/09/23 02:53:16;;;;;;;58.80;3.00;;;8.10;1.00;;;;;;5048094;28;20537;-69
2021/09/23 02:55:43;;;;;;;58.70;3.20;;;8.10;1.00;;;;;;5047444;27;20495;-69
2021/09/23 02:58:10;;;;;;;59.07;3.20;;;8.10;1.00;;;;;;5048537;28;20477;-69
2021/09/23 03:00:37;;;;;;;58.67;3.10;;;8.10;1.00;;;;;;5048217;28;21053;-69
2021/09/23 03:03:04;;;;;;;58.57;3.10;;;8.00;1.00;;;;;;5048208;28;20455;-69
2021/09/23 03:05:32;;;;;;;58.73;2.90;;;8.10;1.00;;;;;;5048180;28;20520;-69
2021/09/23 03:07:59;;;;;;;58.70;3.10;;;8.10;1.00;;;;;;5048255;28;20473;-69
2021/09/23 03:10:26;;;;;;;58.63;3.10;;;8.10;1.00;;;;;;5047973;28;20993;-69
2021/09/23 03:12:53;;;;;;;58.67;3.10;;;8.00;1.00;;;;;;5048565;28;20533;-69
2021/09/23 03:15:20;;;;;;;58.47;2.80;;;8.00;1.00;;;;;;5051847;28;20515;-69
2021/09/23 03:17:47;;;;;;;58.77;3.30;;;8.00;1.00;;;;;;5051032;28;20925;-69
2021/09/23 03:20:15;;;;;;;58.67;3.00;;;8.00;1.00;;;;;;5051311;27;20982;-69
2021/09/23 03:22:43;;;;;;;58.77;3.30;;;8.00;1.00;;;;;;5051537;28;20451;-69
2021/09/23 03:25:10;;;;;;;58.57;3.00;;;8.00;1.00;;;;;;5051266;28;20538;-69
2021/09/23 03:27:37;;;;;;;58.80;3.07;;;7.90;1.00;;;;;;5052091;27;20477;-69
2021/09/23 03:30:05;;;;;;;58.87;3.10;;;7.90;1.00;;;;;;5051374;28;20462;-69
2021/09/23 03:32:32;;;;;;;58.47;3.00;;;7.90;1.00;;;;;;5051239;28;20485;-69
2021/09/23 03:34:59;;;;;;;58.70;3.20;;;7.90;1.00;;;;;;5051411;28;20448;-69
2021/09/23 03:37:25;;;;;;;58.37;2.90;;;7.80;1.00;;;;;;5050808;28;20470;-69
2021/09/23 03:39:54;;;;;;;58.43;2.90;;;7.80;1.00;;;;;;5051516;28;20460;-69
2021/09/23 03:42:20;;;;;;;58.67;3.10;;;7.80;1.00;;;;;;5051314;28;20558;-69
2021/09/23 03:44:47;;;;;;;58.57;2.90;;;7.80;1.00;;;;;;5051642;28;20454;-69
2021/09/23 03:47:15;;;;;;;58.80;3.10;;;7.80;1.00;;;;;;5050907;28;20540;-69
2021/09/23 03:49:42;;;;;;;58.73;3.30;;;7.90;1.00;;;;;;5051101;28;20455;-69
2021/09/23 03:52:09;;;;;;;58.57;2.90;;;7.80;1.00;;;;;;5050864;28;20445;-69
2021/09/23 03:54:36;;;;;;;58.50;2.73;;;7.80;1.00;;;;;;5050910;28;20485;-69
2021/09/23 03:57:04;;;;;;;58.80;3.10;;;7.80;1.00;;;;;;5050575;28;20565;-69
2021/09/23 03:59:31;;;;;;;58.47;2.70;;;7.70;1.00;;;;;;5100083;27;20489;-69
2021/09/23 04:01:58;;;;;;;58.47;2.70;;;7.70;1.00;;;;;;5155957;27;20550;-69
2021/09/23 04:04:25;;;;;;;58.43;2.90;;;7.70;1.00;;;;;;5155913;27;20492;-69
2021/09/23 04:06:52;;;;;;;58.47;2.87;;;7.70;1.00;;;;;;5155448;27;20501;-69
2021/09/23 04:09:18;;;;;;;58.50;2.47;;;7.60;1.00;;;;;;5156130;27;20573;-69
2021/09/23 04:11:45;;;;;;;58.57;2.80;;;7.60;1.00;;;;;;5156150;27;20469;-69
2021/09/23 04:14:13;;;;;;;60.50;3.20;;;7.50;1.00;;;;;;5155543;27;20490;-69
2021/09/23 04:16:40;;;;;;;58.55;2.40;;;7.50;1.00;;;;;;5155421;27;20564;-69
2021/09/23 04:19:07;;;;;;;58.40;2.80;;;7.50;1.00;;;;;;5156015;27;20204;-69
2021/09/23 04:21:34;;;;;;;58.37;2.90;;;7.50;1.00;;;;;;5155670;27;20455;-69
2021/09/23 04:24:01;;;;;;;58.47;2.70;;;7.40;1.00;;;;;;5155494;27;20616;-69
2021/09/23 04:26:28;;;;;;;58.75;2.67;;;7.40;1.00;;;;;;5155230;27;20456;-69
2021/09/23 04:28:55;;;;;;;58.80;3.10;;;7.40;1.00;;;;;;5155382;27;20246;-69
2021/09/23 04:31:23;;;;;;;58.60;3.17;;;7.40;1.00;;;;;;5080233;27;20254;-69
2021/09/23 04:33:50;;;;;;;58.60;2.80;;;7.40;1.00;;;;;;5030425;28;20446;-69
2021/09/23 04:36:17;;;;;;;58.45;2.92;;;7.30;1.00;;;;;;5030206;28;20318;-69
2021/09/23 04:38:44;;;;;;;58.43;3.13;;;7.30;1.00;;;;;;5030500;28;20226;-69
2021/09/23 04:41:11;;;;;;;58.37;2.90;;;7.30;1.00;;;;;;5030749;28;20964;-69
2021/09/23 04:43:39;;;;;;;58.58;3.05;;;7.30;1.00;;;;;;5030538;28;20828;-69
2021/09/23 04:46:06;;;;;;;58.47;2.87;;;7.30;1.00;;;;;;5030092;28;20207;-69
2021/09/23 04:48:34;;;;;;;58.47;2.90;;;7.30;1.00;;;;;;5030070;28;20996;-69
2021/09/23 04:51:01;;;;;;;58.43;3.03;;;7.30;1.00;;;;;;5030210;28;20549;-69
2021/09/23 04:53:28;;;;;;;58.75;3.05;;;7.30;1.00;;;;;;5030009;28;20461;-69
2021/09/23 04:55:55;;;;;;;58.60;3.00;;;7.30;1.00;;;;;;5029958;28;20224;-69
2021/09/23 04:58:22;;;;;;;58.53;2.97;;;7.30;1.00;;;;;;5030135;28;20325;-69
2021/09/23 05:00:49;;;;;;;58.80;3.30;;;7.30;1.00;;;;;;5029958;28;20203;-69
2021/09/23 05:03:18;;;;;;;58.58;2.78;;;7.30;1.00;;;;;;5116347;27;20539;-69
2021/09/23 05:05:46;;;;;;;58.40;2.75;;;7.30;1.00;;;;;;5154798;27;20252;-69
2021/09/23 05:08:13;;;;;;;58.60;3.30;;;7.30;1.00;;;;;;5154572;27;20222;-69
2021/09/23 05:10:40;;;;;;;58.67;2.80;;;7.30;1.00;;;;;;5154794;27;20466;-69
2021/09/23 05:13:07;;;;;;;58.50;3.00;;;7.30;1.00;;;;;;5154550;27;20253;-69
2021/09/23 05:15:34;;;;;;;60.20;3.30;;;7.30;1.00;;;;;;5154161;27;20451;-69
2021/09/23 05:18:01;;;;;;;58.67;2.83;;;7.30;1.00;;;;;;5154692;27;20256;-69
2021/09/23 05:20:27;;;;;;;58.43;2.70;;;7.30;1.00;;;;;;5154412;27;20296;-69
2021/09/23 05:22:56;;;;;;;58.47;2.97;;;7.30;1.00;;;;;;5154741;27;20436;-69
2021/09/23 05:25:22;;;;;;;58.47;2.90;;;7.30;1.00;;;;;;5154484;27;20550;-69
2021/09/23 05:27:50;;;;;;;58.70;2.90;;;7.30;1.00;;;;;;5154015;27;20477;-69
2021/09/23 05:30:17;;;;;;;58.65;2.85;;;7.30;1.00;;;;;;5154404;27;20268;-69
2021/09/23 05:32:44;;;;;;;58.83;2.97;;;7.30;1.00;;;;;;5154489;27;20214;-69
2021/09/23 05:35:11;;;;;;;58.35;2.85;;;7.30;1.00;;;;;;5089317;27;20594;-69
2021/09/23 05:37:39;;;;;;;58.47;3.20;;;7.30;1.00;;;;;;5049368;28;20234;-69
2021/09/23 05:40:09;;;;;;;58.58;2.75;;;7.40;1.00;;;;;;5049527;28;20541;-69
2021/09/23 05:42:37;;;;;;;58.57;2.80;;;7.40;1.00;;;;;;5049280;28;20239;-69
2021/09/23 05:45:06;;;;;;;58.43;2.83;;;7.40;1.00;;;;;;5049265;28;20541;-69
2021/09/23 05:47:33;;;;;;;58.85;3.30;;;7.40;1.00;;;;;;5048801;28;20576;-69
2021/09/23 05:50:00;;;;;;;58.58;2.88;;;7.40;1.00;;;;;;5049513;28;20215;-69
2021/09/23 05:52:27;;;;;;;58.65;2.78;;;7.40;1.00;;;;;;5049321;28;20676;-69
2021/09/23 05:54:54;;;;;;;58.58;3.05;;;7.40;1.00;;;;;;5048776;28;20211;-69
2021/09/23 05:57:24;;;;;;;59.20;3.20;;;7.40;1.00;;;;;;5049016;28;20226;-69
2021/09/23 05:59:51;;;;;;;58.65;3.08;;;7.50;1.00;;;;;;5049385;28;20585;-69
2021/09/23 06:02:18;;;;;;;58.43;2.60;;;7.50;1.00;;;;;;5049219;28;20206;-69
2021/09/23 06:04:45;;;;;;;58.47;3.00;;;7.50;1.00;;;;;;5048990;28;20447;-69
2021/09/23 06:07:11;;;;;;;58.43;3.10;;;7.60;1.00;;;;;;5117922;27;20228;-69
2021/09/23 06:09:38;;;;;;;58.60;2.90;;;7.60;1.00;;;;;;5153338;27;20868;-69
2021/09/23 06:12:06;;;;;;;58.60;3.10;;;7.60;1.00;;;;;;5153777;27;20206;-69
2021/09/23 06:14:34;;;;;;;58.63;2.90;;;7.70;1.00;;;;;;5153667;27;20538;-69
2021/09/23 06:17:01;;;;;;;58.58;2.97;;;7.70;1.00;;;;;;5153404;27;20468;-69
2021/09/23 06:19:29;;;;;;;58.58;2.85;;;7.70;1.00;;;;;;5153650;27;20198;-69
2021/09/23 06:21:55;;;;;;;61.40;3.60;;;7.80;1.00;;;;;;5153394;27;20289;-69
2021/09/23 06:24:22;;;;;;;58.67;2.90;;;7.80;1.00;;;;;;5153356;27;20630;-69
2021/09/23 06:26:49;;;;;;;58.37;2.70;;;7.90;1.00;;;;;;5152801;27;20577;-69
2021/09/23 06:29:17;;;;;;;58.47;2.80;;;8.00;1.00;;;;;;5153299;27;20445;-69
2021/09/23 06:31:45;;;;;;;58.60;3.70;;;8.00;1.00;;;;;;5153314;27;20461;-69
2021/09/23 06:34:12;;;;;;;58.70;3.03;;;8.10;1.00;;;;;;5153293;27;20538;-69
2021/09/23 06:36:39;;;;;;;58.60;3.20;;;8.10;1.00;;;;;;5135872;27;20299;-70
2021/09/23 06:39:06;;;;;;;58.60;3.33;;;8.10;1.00;;;;;;5049285;27;20441;-70
2021/09/23 06:41:34;;;;;;;59.93;4.80;;;8.20;1.00;;;;;;5048692;28;20697;-69
2021/09/23 06:44:02;;;;;;;58.43;2.90;;;8.30;1.00;;;;;;5048599;28;20536;-69
2021/09/23 06:46:29;;;;;;;58.27;2.80;;;8.40;1.00;;;;;;5048515;28;20513;-69
2021/09/23 06:48:58;;;;;;;58.37;3.07;;;8.40;1.00;;;;;;5073334;27;20747;-69
2021/09/23 06:51:25;;;;;;;59.10;3.50;;;8.50;1.00;;;;;;5157887;27;20470;-69
2021/09/23 06:53:51;;;;;;;58.78;3.10;;;8.60;1.00;;;;;;5157658;27;20445;-69
2021/09/23 06:56:18;;;;;;;58.27;2.83;;;8.70;1.00;;;;;;5157262;27;20238;-69
2021/09/23 06:58:45;;;;;;;58.17;2.70;;;8.80;1.00;;;;;;5157706;27;20501;-69
2021/09/23 07:01:12;;;;;;;58.37;2.90;;;8.90;1.00;;;;;;5158017;27;20545;-69
2021/09/23 07:03:39;;;;;;;59.00;3.37;;;9.00;1.00;;;;;;5155857;27;20447;-69
2021/09/23 07:06:07;;;;;;;58.27;3.00;;;9.10;1.00;;;;;;5157036;27;20444;-70
2021/09/23 07:08:34;;;;;;;58.27;2.83;;;9.20;1.00;;;;;;5157861;27;20465;-70
2021/09/23 07:11:03;;;;;;;58.27;2.90;;;9.30;1.00;;;;;;5157181;27;20450;-70
2021/09/23 07:13:30;;;;;;;58.37;3.00;;;9.40;1.00;;;;;;5157160;27;20929;-70
2021/09/23 07:15:59;;;;;;;58.40;2.90;;;9.50;1.00;;;;;;5156610;27;20447;-69
2021/09/23 07:18:26;;;;;;;58.27;2.93;;;9.50;1.00;;;;;;5156666;27;20919;-69
2021/09/23 07:20:53;;;;;;;58.57;3.07;;;9.60;1.00;;;;;;5124194;27;20501;-69
2021/09/23 07:23:21;;;;;;;58.37;2.87;;;9.70;1.00;;;;;;5051775;28;20550;-69
2021/09/23 07:25:48;;;;;;;58.13;2.70;;;9.80;1.00;;;;;;5051223;28;20452;-69
2021/09/23 07:28:16;;;;;;;58.47;3.00;;;9.90;1.00;;;;;;5051446;28;20930;-69
2021/09/23 07:30:43;;;;;;;58.47;2.83;;;10.00;1.00;;;;;;5051193;28;20468;-69
2021/09/23 07:33:10;;;;;;;58.70;3.03;;;10.10;1.00;;;;;;5051505;28;20462;-69
2021/09/23 07:35:37;;;;;;;58.33;3.10;;;10.20;1.00;;;;;;5051276;28;20547;-69
2021/09/23 07:38:04;;;;;;;58.27;2.60;;;10.30;1.00;;;;;;5051189;28;20884;-69
2021/09/23 07:40:33;;;;;;;58.73;3.20;;;10.40;1.00;;;;;;5051318;28;20458;-69
2021/09/23 07:43:00;;;;;;;58.27;2.90;;;10.60;1.00;;;;;;5051342;28;20450;-69
2021/09/23 07:45:27;;;;;;;58.20;2.90;;;10.60;1.00;;;;;;5050811;28;20820;-69
2021/09/23 07:47:54;;;;;;;58.67;3.10;;;10.80;1.00;;;;;;5051315;27;20494;-69
2021/09/23 07:50:21;;;;;;;58.37;3.00;;;10.90;1.00;;;;;;5051426;27;20814;-69
2021/09/23 07:52:48;;;;;;;58.40;2.87;;;11.00;1.00;;;;;;5051227;28;20520;-69
2021/09/23 07:55:15;;;;;;;58.47;3.00;;;11.10;1.00;;;;;;5051288;28;20486;-69
2021/09/23 07:57:43;;;;;;;59.00;3.10;;;11.30;1.00;;;;;;5048721;27;20561;-69
2021/09/23 08:00:11;;;;;;;58.40;2.80;;;11.40;1.00;;;;;;5050303;28;20458;-69
2021/09/23 08:02:38;;;;;;;58.37;3.00;;;11.60;1.00;;;;;;5050491;28;21019;-69
2021/09/23 08:05:06;;;;;;;58.43;3.00;;;11.70;1.00;;;;;;5050758;28;20528;-69
2021/09/23 08:07:32;;;;;;;58.27;2.87;;;11.80;1.00;;;;;;5050521;28;20571;-69
2021/09/23 08:09:59;;;;;;;58.53;2.93;;;12.00;1.00;;;;;;5051078;28;20452;-69
2021/09/23 08:12:27;;;;;;;58.33;2.80;;;12.10;1.00;;;;;;5050622;28;20450;-69
2021/09/23 08:14:55;;;;;;;59.97;4.90;;;12.20;1.00;;;;;;5051235;28;20452;-69
2021/09/23 08:17:22;;;;;;;58.17;2.80;;;12.30;1.00;;;;;;5050342;28;20472;-69
2021/09/23 08:19:49;;;;;;;58.37;2.73;;;12.50;1.00;;;;;;5050711;28;21019;-69
2021/09/23 08:22:16;;;;;;;58.50;2.80;;;12.50;1.00;;;;;;5050851;28;20535;-69
2021/09/23 08:24:43;;;;;;;58.23;2.90;;;12.70;1.00;;;;;;5050696;28;20569;-69
2021/09/23 08:27:10;;;;;;;58.40;2.97;;;12.80;1.00;;;;;;5049802;28;20494;-69
2021/09/23 08:29:38;;;;;;;57.87;2.67;;;12.90;1.00;;;;;;5049505;28;20495;-70
2021/09/23 08:32:06;;;;;;;58.60;3.20;;;13.00;1.00;;;;;;5050766;28;20539;-69
2021/09/23 08:34:33;;;;;;;58.83;3.10;;;13.10;1.00;;;;;;5050621;28;20470;-69
2021/09/23 08:37:00;;;;;;;58.33;2.70;;;13.20;1.00;;;;;;5050189;28;20551;-69
2021/09/23 08:39:27;;;;;;;59.27;3.80;;;13.40;1.00;;;;;;5050558;28;20487;-70
2021/09/23 08:41:54;;;;;;;58.33;2.80;;;13.50;1.00;;;;;;5050416;28;20447;-69
2021/09/23 08:44:21;;;;;;;58.40;3.00;;;13.70;1.00;;;;;;5050458;28;20451;-70
2021/09/23 08:46:48;;;;;;;58.47;2.63;;;13.80;1.00;;;;;;5050009;28;20838;-69
2021/09/23 08:49:16;;;;;;;58.17;2.73;;;14.00;1.00;;;;;;5050301;28;20543;-69
2021/09/23 08:51:43;;;;;;;58.37;2.80;;;14.10;1.00;;;;;;5050417;28;20539;-69
2021/09/23 08:54:11;;;;;;;58.30;2.70;;;14.20;1.00;;;;;;5050191;28;20445;-69
2021/09/23 08:56:38;;;;;;;58.90;3.57;;;14.40;1.00;;;;;;5050076;28;20499;-69
2021/09/23 08:59:05;;;;;;;58.60;2.90;;;14.60;1.00;;;;;;5050443;28;20476;-69
2021/09/23 09:01:39;;;;;;;58.37;2.70;;;14.70;1.00;;;;;;5050218;28;20535;-69
2021/09/23 09:04:07;;;;;;;58.30;3.03;;;14.70;1.00;;;;;;5050198;27;21027;-69
2021/09/23 09:06:35;;;;;;;58.20;3.00;;;14.90;1.00;;;;;;5049506;28;20448;-69
2021/09/23 09:09:04;;;;;;;58.90;2.90;;;15.00;1.00;;;;;;5050093;28;20485;-69
2021/09/23 09:11:31;;;;;;;58.37;3.50;;;15.10;1.00;;;;;;5049161;28;20449;-69
2021/09/23 09:13:58;;;;;;;58.27;2.50;;;15.20;1.00;;;;;;5050107;28;20547;-69
2021/09/23 09:16:28;;;;;;;58.57;3.30;;;15.40;1.00;;;;;;5049662;28;20530;-69
2021/09/23 09:18:56;;;;;;;58.17;2.33;;;15.60;1.00;;;;;;5049948;28;20820;-69
2021/09/23 09:21:25;;;;;;;57.93;2.60;;;15.90;1.00;;;;;;5049853;28;20871;-69
2021/09/23 09:23:56;;;;;;;58.40;3.00;;;16.00;1.00;;;;;;5050036;28;20456;-69
2021/09/23 09:26:28;;;;;;;58.40;3.93;;;16.20;1.00;;;;;;5049604;28;20469;-69
2021/09/23 09:28:58;;;;;;;59.00;2.83;;;16.50;1.00;;;;;;5049808;28;20928;-69
2021/09/23 09:31:25;;;;;;;58.37;3.00;;;16.90;1.00;;;;;;5049651;28;20890;-69
2021/09/23 09:33:54;;;;;;;58.50;3.17;;;17.10;1.00;;;;;;5049614;28;20979;-69
2021/09/23 09:36:27;;;;;;;58.40;2.70;;;17.40;1.00;;;;;;5049434;28;20535;-69
2021/09/23 09:38:57;;;;;;;58.50;2.83;;;17.80;1.00;;;;;;5049808;28;20924;-69
2021/09/23 09:41:26;;;;;;;58.60;2.80;;;18.30;1.00;;;;;;5049776;28;20451;-69
2021/09/23 09:43:54;;;;;;;58.90;2.97;;;19.00;1.00;;;;;;5049677;27;20449;-69
2021/09/23 09:46:26;;;;;;;58.07;2.70;;;19.60;1.00;;;;;;5049022;28;20459;-69
2021/09/23 09:48:54;;;;;;;58.27;2.80;;;20.40;1.00;;;;;;5049606;28;20925;-69
2021/09/23 09:51:36;;;;;;;58.40;2.60;;;21.00;1.00;;;;;;5049686;28;20472;-69
2021/09/23 09:54:05;;;;;;;58.40;2.63;;;21.70;1.00;;;;;;5049467;28;20457;-69
2021/09/23 09:56:33;;;;;;;57.87;2.40;;;22.40;1.00;;;;;;5048905;28;20968;-69
2021/09/23 09:59:21;;;;;;;57.97;2.30;;;22.90;1.00;;;;;;5049188;28;20447;-69
2021/09/23 10:01:49;;;;;;;58.50;2.80;;;23.50;1.00;;;;;;5050706;28;20457;-70
2021/09/23 10:04:17;;;;;;;66.07;2.70;;;23.90;1.00;;;;;;5049263;28;20942;-69
2021/09/23 10:06:45;;;;;;;57.77;2.17;;;24.40;1.00;;;;;;5048554;28;20455;-69
2021/09/23 10:09:15;;;;;;;57.80;2.63;;;25.00;1.00;;;;;;5048906;28;20487;-70
2021/09/23 10:11:45;;;;;;;57.93;2.20;;;25.80;1.00;;;;;;5049224;28;20539;-70
2021/09/23 10:14:13;;;;;;;57.73;2.20;;;26.50;1.00;;;;;;5049057;28;20544;-69
2021/09/23 10:16:40;;;;;;;57.90;2.43;;;26.70;1.00;;;;;;5048520;28;20449;-70
2021/09/23 10:19:09;;;;;;;58.07;2.70;;;26.80;1.00;;;;;;5048944;28;20451;-70
2021/09/23 10:21:37;;;;;;;57.67;2.10;;;27.10;1.00;;;;;;5048456;28;20797;-70
2021/09/23 10:24:06;;;;;;;57.80;2.20;;;27.30;1.00;;;;;;5049064;27;20457;-70
2021/09/23 10:26:39;;;;;;;58.57;2.40;;;27.60;1.00;;;;;;5048541;28;20452;-70
2021/09/23 10:29:07;;;;;;;57.60;2.53;;;27.80;1.00;;;;;;5048771;28;20481;-70
2021/09/23 10:31:34;;;;;;;57.60;2.23;;;28.20;1.00;;;;;;5048655;28;20463;-68
2021/09/23 10:34:03;;;;;;;57.60;2.10;;;28.50;1.00;;;;;;5048704;28;20453;-67
2021/09/23 10:36:31;;;;;;;57.50;2.30;;;28.80;1.00;;;;;;5050017;27;20501;-68
2021/09/23 10:39:01;;;;;;;57.30;2.27;;;29.20;1.00;;;;;;5152909;27;20526;-67
2021/09/23 10:41:28;;;;;;;57.70;2.60;;;29.70;1.00;;;;;;5153330;27;20452;-67
2021/09/23 10:43:57;;;;;;;57.70;2.40;;;30.00;1.00;;;;;;5153302;27;20446;-67
2021/09/23 10:46:27;;;;;;;57.10;2.37;;;30.20;1.00;;;;;;5048568;27;20544;-67
2021/09/23 10:48:55;;;;;;;57.33;2.20;;;30.50;1.00;;;;;;5047984;28;20473;-67
2021/09/23 10:51:23;;;;;;;57.57;2.23;;;31.00;1.00;;;;;;5048255;28;20448;-67
2021/09/23 10:53:55;;;;;;;57.50;2.40;;;31.50;1.00;;;;;;5048327;28;20454;-69
2021/09/23 10:56:22;;;;;;;57.17;2.20;;;31.70;1.00;;;;;;5047742;28;20924;-69
2021/09/23 10:58:50;;;;;;;56.97;2.00;;;31.60;1.00;;;;;;5047938;28;20484;-69
2021/09/23 11:01:24;;;;;;;57.30;1.93;;;31.80;1.00;;;;;;5048059;28;20448;-69
2021/09/23 11:03:52;;;;;;;57.37;2.10;;;32.30;1.00;;;;;;5048620;28;20463;-70
2021/09/23 11:06:19;;;;;;;57.00;2.00;;;32.50;1.00;;;;;;5048515;28;20857;-70
2021/09/23 11:08:48;;;;;;;57.17;2.03;;;32.40;1.00;;;;;;5048212;28;21007;-69
2021/09/23 11:11:16;;;;;;;57.27;2.20;;;32.40;1.00;;;;;;5048226;28;20882;-70
2021/09/23 11:13:43;;;;;;;58.30;2.50;;;32.40;1.00;;;;;;5047998;28;21061;-70
2021/09/23 11:16:12;;;;;;;57.50;2.40;;;32.50;1.00;;;;;;5071877;27;20440;-70
2021/09/23 11:18:41;;;;;;;58.67;2.30;;;32.60;1.00;;;;;;5152426;27;20475;-70
2021/09/23 11:21:09;;;;;;;57.27;2.37;;;32.70;1.00;;;;;;5152204;27;20530;-70
2021/09/23 11:23:37;;;;;;;57.90;3.43;;;32.80;1.00;;;;;;5152122;27;20443;-68
2021/09/23 11:26:06;;;;;;;57.13;2.20;;;33.30;1.00;;;;;;5150853;27;20489;-68
2021/09/23 11:28:33;;;;;;;57.10;2.00;;;33.40;1.00;;;;;;5151730;27;20562;-68
2021/09/23 11:31:01;;;;;;;57.00;2.00;;;33.10;1.00;;;;;;5152398;27;20469;-68
2021/09/23 11:33:29;;;;;;;56.97;2.00;;;33.00;1.00;;;;;;5152755;27;20454;-67
2021/09/23 11:35:58;;;;;;;56.97;2.10;;;32.90;1.00;;;;;;5155770;27;20447;-68
2021/09/23 11:38:25;;;;;;;57.27;2.30;;;33.00;1.00;;;;;;5155807;27;20850;-68
2021/09/23 11:40:55;;;;;;;57.27;2.80;;;32.80;1.00;;;;;;5156165;27;20444;-68
2021/09/23 11:43:26;;;;;;;56.97;1.97;;;32.80;1.00;;;;;;5156186;27;20439;-68
2021/09/23 11:45:54;;;;;;;57.77;2.40;;;32.90;1.00;;;;;;5155028;27;20443;-68
2021/09/23 11:48:25;;;;;;;57.60;2.40;;;32.70;1.00;;;;;;5152663;27;20847;-68
2021/09/23 11:50:56;;;;;;;57.27;2.10;;;32.40;1.00;;;;;;5156444;27;20451;-68
2021/09/23 11:53:26;;;;;;;57.40;2.30;;;32.50;1.00;;;;;;5156231;27;20526;-68
2021/09/23 11:56:02;;;;;;;57.10;2.00;;;33.00;1.00;;;;;;5156016;27;20452;-68
2021/09/23 11:58:30;;;;;;;57.10;2.07;;;;;;;;;;5155619;27;20561;-68
2021/09/23 12:00:57;;;;;;;57.17;2.27;;;34.50;1.00;;;;;;5156153;27;20442;-68
2021/09/23 12:03:25;;;;;;;57.73;2.20;;;35.10;1.00;;;;;;5156022;27;20443;-68
2021/09/23 12:05:56;;;;;;;57.00;2.13;;;35.60;1.00;;;;;;5156068;27;20454;-68
2021/09/23 12:08:25;;;;;;;56.83;2.07;;;35.70;1.00;;;;;;5156069;27;20511;-68
2021/09/23 12:10:55;;;;;;;57.60;2.33;;;35.60;1.00;;;;;;5156110;27;20444;-68
2021/09/23 12:13:34;;;;;;;56.97;2.10;;;35.60;1.00;;;;;;5155879;27;20869;-68
2021/09/23 12:16:03;;;;;;;58.60;2.57;;;36.10;1.00;;;;;;5155115;27;20444;-68
2021/09/23 12:18:31;;;;;;;56.90;2.20;;;36.30;1.00;;;;;;5155398;27;20553;-68
2021/09/23 12:20:59;;;;;;;57.13;2.60;;;36.40;1.00;;;;;;5149710;27;20526;-68
2021/09/23 12:23:30;;;;;;;56.90;2.20;;;36.50;1.00;;;;;;5155982;27;20539;-68
2021/09/23 12:26:12;;;;;;;56.57;2.10;;;36.20;1.00;;;;;;5155441;27;20439;-68
2021/09/23 12:28:45;;;;;;;57.40;2.57;;;36.30;1.00;;;;;;5155433;27;20896;-68
2021/09/23 12:31:14;;;;;;;57.00;2.40;;;36.60;1.00;;;;;;5155539;27;20554;-68
2021/09/23 12:33:53;;;;;;;56.87;2.10;;;36.30;1.00;;;;;;5155841;27;20803;-68
2021/09/23 12:36:25;;;;;;;56.73;2.00;;;36.40;1.00;;;;;;5155332;27;20451;-68
2021/09/23 12:39:18;;;;;;;56.67;2.30;;;36.70;1.00;;;;;;5154915;27;20515;-68
2021/09/23 12:42:10;;;;;;;57.50;2.53;;;36.90;1.00;;;;;;5152845;27;20460;-68
2021/09/23 12:44:38;;;;;;;57.50;2.60;;;36.80;1.00;;;;;;5155150;27;20501;-68
2021/09/23 12:47:12;;;;;;;56.60;1.90;;;36.80;1.00;;;;;;5154651;27;20459;-68
2021/09/23 12:49:41;;;;;;;56.57;1.80;;;36.80;1.00;;;;;;5154983;27;20551;-68
2021/09/23 12:52:27;;;;;;;56.67;2.00;;;36.90;1.00;;;;;;5097152;27;20944;-68
2021/09/23 12:54:57;;;;;;;56.43;2.10;;;37.30;1.00;;;;;;5050306;28;20444;-68
2021/09/23 12:57:26;;;;;;;57.00;2.23;;;37.60;1.00;;;;;;5049953;28;20472;-68